createdAt,value
2023-01-12T00:04:03.721Z,98960.84
2023-01-12T00:14:05.998Z,98946.19
2023-01-12T00:24:08.679Z,98947.63
2023-01-12T00:34:10.092Z,98953.22
2023-01-12T00:44:30.075Z,98947.00
2023-01-12T00:54:32.514Z,98931.78
2023-01-12T01:04:36.872Z,98931.56
2023-01-12T01:14:38.269Z,98925.56
2023-01-12T01:24:40.742Z,98918.16
2023-01-12T01:34:42.183Z,98917.53
2023-01-12T01:44:43.790Z,98915.09
2023-01-12T01:55:09.016Z,98910.97
2023-01-12T02:05:10.569Z,98900.25
2023-01-12T02:15:30.547Z,98878.81
2023-01-12T02:25:47.280Z,98878.81
2023-01-12T02:35:54.804Z,98862.09
2023-01-12T02:46:21.769Z,98852.41
2023-01-12T02:56:25.290Z,98841.03
2023-01-12T03:06:37.282Z,98834.03
2023-01-12T03:16:38.736Z,98837.13
2023-01-12T03:26:43.025Z,98824.75
2023-01-12T03:36:57.426Z,98804.50
2023-01-12T03:47:01.710Z,98802.25
2023-01-12T03:57:03.208Z,98783.06
2023-01-12T04:07:04.584Z,98771.91
2023-01-12T04:17:06.599Z,98760.59
2023-01-12T04:27:08.242Z,98753.16
2023-01-12T04:37:09.652Z,98735.81
2023-01-12T04:47:11.566Z,98730.44
2023-01-12T04:57:12.937Z,98695.84
2023-01-12T05:07:14.304Z,98697.50
2023-01-12T05:17:16.050Z,98679.78
2023-01-12T05:27:18.756Z,98642.72
2023-01-12T05:37:20.141Z,98638.50
2023-01-12T05:47:21.539Z,98628.81
2023-01-12T05:57:22.922Z,98624.25
2023-01-12T06:07:24.294Z,98605.41
2023-01-12T06:17:25.827Z,98590.50
2023-01-12T06:27:30.594Z,98578.09
2023-01-12T06:37:31.962Z,98571.31
2023-01-12T06:47:33.558Z,98573.16
2023-01-12T06:57:35.021Z,98564.69
2023-01-12T07:07:39.887Z,98524.25
2023-01-12T07:17:41.501Z,98524.84
2023-01-12T07:27:50.001Z,98518.41
2023-01-12T07:37:53.655Z,98528.47
2023-01-12T07:47:55.128Z,98527.84
2023-01-12T07:58:00.617Z,98534.47
2023-01-12T08:08:03.536Z,98541.72
2023-01-12T08:18:07.784Z,98535.31
2023-01-12T08:28:09.256Z,98527.84
2023-01-12T08:38:10.632Z,98533.56
2023-01-12T08:48:12.106Z,98532.50
2023-01-12T08:58:13.518Z,98533.91
2023-01-12T09:08:14.910Z,98533.72
2023-01-12T09:18:16.276Z,98543.63
2023-01-12T09:28:17.698Z,98558.06
2023-01-12T09:38:19.065Z,98555.75
2023-01-12T09:48:23.059Z,98570.19
2023-01-12T09:59:07.649Z,98572.22
2023-01-12T10:09:19.487Z,98591.81
2023-01-12T10:19:27.876Z,98588.91
2023-01-12T10:29:30.717Z,98592.00
2023-01-12T10:39:38.585Z,98588.25
2023-01-12T10:49:39.965Z,98587.03
2023-01-12T10:59:41.332Z,98578.06
2023-01-12T11:09:43.139Z,98573.94
2023-01-12T11:19:44.606Z,98568.13
2023-01-12T11:29:54.520Z,98566.28
2023-01-12T11:40:25.721Z,98565.44
2023-01-12T11:50:30.977Z,98572.25
2023-01-12T12:00:58.858Z,98558.59
2023-01-12T12:11:32.236Z,98564.34
2023-01-12T12:21:39.635Z,98559.34
2023-01-12T12:32:02.421Z,98546.75
2023-01-12T12:43:00.021Z,98552.72
2023-01-12T12:53:22.898Z,98561.63
2023-01-12T13:03:39.342Z,98546.28
2023-01-12T13:13:57.868Z,98544.22
2023-01-12T13:24:11.641Z,98528.75
2023-01-12T13:34:31.538Z,98533.97
2023-01-12T13:44:37.613Z,98530.06
2023-01-12T13:54:48.081Z,98532.53
2023-01-12T14:04:53.803Z,98538.19
2023-01-12T14:15:37.152Z,98532.03
2023-01-12T14:25:38.628Z,98526.94
2023-01-12T14:35:43.134Z,98529.44
2023-01-12T14:46:12.997Z,98520.78
2023-01-12T14:56:22.921Z,98518.53
2023-01-12T15:06:24.289Z,98512.16
2023-01-12T15:16:44.432Z,98500.19
2023-01-12T15:26:46.806Z,98491.97
2023-01-12T15:36:50.762Z,98496.13
2023-01-12T15:46:52.607Z,98487.50
2023-01-12T15:56:54.028Z,98481.31
2023-01-12T16:06:55.725Z,98474.94
2023-01-12T16:16:57.119Z,98470.22
2023-01-12T16:26:58.553Z,98465.06
2023-01-12T16:37:00.903Z,98458.69
2023-01-12T16:47:02.789Z,98454.59
2023-01-12T16:57:04.172Z,98451.06
2023-01-12T17:07:05.978Z,98443.22
2023-01-12T17:17:08.490Z,98438.28
2023-01-12T17:27:10.144Z,98433.13
2023-01-12T17:37:11.634Z,98440.81
2023-01-12T17:47:13.202Z,98436.88
2023-01-12T17:57:14.749Z,98445.97
2023-01-12T18:07:16.189Z,98447.03
2023-01-12T18:17:17.907Z,98441.47
2023-01-12T18:27:19.458Z,98440.03
2023-01-12T18:37:21.000Z,98443.97
2023-01-12T18:47:40.934Z,98447.06
2023-01-12T18:57:42.332Z,98425.63
2023-01-12T19:08:02.798Z,98435.56
2023-01-12T19:18:04.279Z,98425.47
2023-01-12T19:28:24.501Z,98411.22
2023-01-12T19:38:25.940Z,98410.22
2023-01-12T19:48:27.665Z,98406.94
2023-01-12T19:58:29.100Z,98393.53
2023-01-12T20:08:31.942Z,98377.63
2023-01-12T20:18:33.342Z,98369.19
2023-01-12T20:28:35.095Z,98373.13
2023-01-12T20:38:36.490Z,98364.47
2023-01-12T20:48:40.154Z,98364.47
2023-01-12T20:58:41.706Z,98362.00
2023-01-12T21:08:43.677Z,98363.03
2023-01-12T21:18:45.073Z,98365.50
2023-01-12T21:28:46.513Z,98369.66
2023-01-12T21:38:51.289Z,98361.00
2023-01-12T21:48:52.669Z,98357.06
2023-01-12T21:58:54.047Z,98345.94
2023-01-12T22:08:55.437Z,98362.66
2023-01-12T22:18:56.849Z,98357.28
2023-01-12T22:28:58.266Z,98358.31
2023-01-12T22:38:59.650Z,98360.16
2023-01-12T22:49:01.291Z,98363.06
2023-01-12T22:59:02.945Z,98351.97
2023-01-12T23:09:04.346Z,98350.53
2023-01-12T23:19:05.692Z,98355.91
2023-01-12T23:29:08.152Z,98335.88
2023-01-12T23:39:10.424Z,98329.91
2023-01-12T23:49:11.984Z,98329.72
2023-01-12T23:59:13.638Z,98318.78
